Time;durP1;ratioP1;P1;durP2;ratioP2;P2;SDS_P1;SDS_P2;PMS_P1;PMS_P2;Temp;Humidity;BMP_temperature;BMP_pressure;BME280_temperature;BME280_humidity;BME280_pressure;Samples;Min_cycle;Max_cycle;Signal;HPM_P1;HPM_P2
2023/08/25 00:01:34;;;;;;;;;;;;;;;24.45;57.33;100571.66;4148028;28;19929;-58
2023/08/25 00:03:35;;;;;;;;;;;;;;;24.45;57.26;100564.44;4146719;28;20350;-59
2023/08/25 00:05:38;;;;;;;;;;;;;;;24.45;57.33;100564.44;4147610;28;20275;-59
2023/08/25 00:07:39;;;;;;;;;;;;;;;24.45;57.28;100558.19;4147819;28;20395;-59
2023/08/25 00:09:43;;;;;;;;;;;;;;;24.45;57.55;100566.28;4147410;28;19925;-59
2023/08/25 00:11:44;;;;;;;;;;;;;;;24.45;57.23;100564.44;4147602;28;19988;-59
2023/08/25 00:13:46;;;;;;;;;;;;;;;24.43;57.26;100550.28;4146286;28;19964;-58
2023/08/25 00:15:48;;;;;;;;;;;;;;;24.44;57.58;100553.84;4147438;28;19925;-59
2023/08/25 00:17:50;;;;;;;;;;;;;;;24.44;57.53;100554.69;4146360;28;19930;-59
2023/08/25 00:19:52;;;;;;;;;;;;;;;24.42;57.33;100539.69;4147743;28;20367;-58
2023/08/25 00:21:54;;;;;;;;;;;;;;;24.43;57.27;100539.53;4147265;28;19926;-59
2023/08/25 00:23:55;;;;;;;;;;;;;;;24.42;57.44;100543.22;4147311;28;19932;-59
2023/08/25 00:25:57;;;;;;;;;;;;;;;24.42;57.27;100537.00;4146427;28;19926;-59
2023/08/25 00:27:59;;;;;;;;;;;;;;;24.36;57.56;100527.69;4147353;28;19972;-59
2023/08/25 00:30:00;;;;;;;;;;;;;;;24.41;57.46;100538.84;4147509;28;19936;-59
2023/08/25 00:32:02;;;;;;;;;;;;;;;24.41;57.58;100541.53;4146989;28;19925;-59
2023/08/25 00:34:04;;;;;;;;;;;;;;;24.40;57.28;100535.31;4149013;28;20361;-59
2023/08/25 00:36:06;;;;;;;;;;;;;;;24.41;57.56;100533.47;4150812;28;20328;-58
2023/08/25 00:38:07;;;;;;;;;;;;;;;24.40;57.44;100531.78;4150768;28;19932;-59
2023/08/25 00:40:10;;;;;;;;;;;;;;;24.39;57.68;100525.56;4150742;28;20275;-58
2023/08/25 00:42:11;;;;;;;;;;;;;;;24.39;57.35;100524.72;4149974;28;20391;-59
2023/08/25 00:44:13;;;;;;;;;;;;;;;24.39;57.43;100517.50;4150268;28;19925;-58
2023/08/25 00:46:15;;;;;;;;;;;;;;;24.38;57.30;100507.72;4150647;28;19936;-58
2023/08/25 00:48:17;;;;;;;;;;;;;;;24.38;57.54;100513.09;4150590;28;19932;-57
2023/08/25 00:50:19;;;;;;;;;;;;;;;24.38;57.70;100514.97;4150787;28;19925;-59
2023/08/25 00:52:21;;;;;;;;;;;;;;;24.39;57.40;100520.19;4149914;28;19929;-58
2023/08/25 00:54:25;;;;;;;;;;;;;;;24.38;57.50;100523.03;4149422;28;19932;-59
2023/08/25 00:56:27;;;;;;;;;;;;;;;24.37;57.41;100519.47;4150666;28;19931;-59
2023/08/25 00:58:29;;;;;;;;;;;;;;;24.38;57.68;100525.72;4150293;28;19926;-58
2023/08/25 01:00:31;;;;;;;;;;;;;;;24.38;57.57;100523.03;4150523;28;19984;-59
2023/08/25 01:02:33;;;;;;;;;;;;;;;24.38;57.35;100523.88;4149716;28;19932;-58
2023/08/25 01:04:35;;;;;;;;;;;;;;;24.37;57.54;100519.47;4150445;28;20012;-59
2023/08/25 01:06:37;;;;;;;;;;;;;;;24.37;57.49;100524.03;4150452;28;19932;-59
2023/08/25 01:08:39;;;;;;;;;;;;;;;24.38;57.52;100533.78;4150426;28;19925;-59
2023/08/25 01:10:50;;;;;;;;;;;;;;;24.37;57.68;100532.09;4150336;28;20028;-58
2023/08/25 01:13:01;;;;;;;;;;;;;;;24.37;57.32;100529.41;4148960;28;19969;-58
2023/08/25 01:15:25;;;;;;;;;;;;;;;24.37;57.79;100538.28;4150592;28;19925;-59
2023/08/25 01:17:38;;;;;;;;;;;;;;;24.38;57.66;100533.78;4150370;28;19930;-58
2023/08/25 01:19:52;;;;;;;;;;;;;;;24.36;57.49;100531.25;4150124;28;20008;-59
2023/08/25 01:21:58;;;;;;;;;;;;;;;24.37;57.46;100526.72;4150235;28;20020;-59
2023/08/25 01:24:02;;;;;;;;;;;;;;;24.37;57.55;100526.72;4149195;28;19980;-59
2023/08/25 01:26:04;;;;;;;;;;;;;;;24.36;57.61;100531.25;4149829;28;19929;-59
2023/08/25 01:28:06;;;;;;;;;;;;;;;24.36;57.88;100528.56;4149997;28;19925;-59
2023/08/25 01:30:08;;;;;;;;;;;;;;;24.36;57.56;100528.56;4150109;28;19982;-59
2023/08/25 01:32:10;;;;;;;;;;;;;;;24.36;57.96;100530.38;4149500;28;19987;-59
2023/08/25 01:34:13;;;;;;;;;;;;;;;24.37;57.52;100534.78;4149632;28;19930;-59
2023/08/25 01:36:15;;;;;;;;;;;;;;;24.36;57.45;100520.50;4150225;28;20343;-58
2023/08/25 01:38:28;;;;;;;;;;;;;;;24.36;57.81;100519.63;4150044;28;19933;-58
2023/08/25 01:40:42;;;;;;;;;;;;;;;24.34;57.69;100509.03;4149738;28;19929;-58
2023/08/25 01:42:45;;;;;;;;;;;;;;;24.34;57.69;100511.72;4148987;28;19925;-59
2023/08/25 01:44:47;;;;;;;;;;;;;;;24.35;57.79;100520.63;4149066;28;19929;-59
2023/08/25 01:46:57;;;;;;;;;;;;;;;24.34;57.69;100519.78;4149509;28;20359;-58
2023/08/25 01:48:59;;;;;;;;;;;;;;;24.34;57.65;100522.47;4149828;28;19948;-59
2023/08/25 01:51:00;;;;;;;;;;;;;;;24.34;57.76;100509.03;4149713;28;20016;-58
2023/08/25 01:53:03;;;;;;;;;;;;;;;24.34;58.00;100509.03;4149038;28;19929;-59
2023/08/25 01:55:04;;;;;;;;;;;;;;;24.35;58.00;100504.50;4149147;28;19925;-59
2023/08/25 01:57:06;;;;;;;;;;;;;;;24.33;58.02;100519.94;4149680;28;19972;-59
2023/08/25 01:59:07;;;;;;;;;;;;;;;24.33;57.89;100515.41;4149846;28;19925;-58
2023/08/25 02:01:09;;;;;;;;;;;;;;;24.34;57.82;100518.94;4149629;28;20024;-59
2023/08/25 02:03:13;;;;;;;;;;;;;;;24.33;57.80;100515.41;4148445;28;19925;-57
2023/08/25 02:05:15;;;;;;;;;;;;;;;24.34;58.04;100511.72;4149550;28;19925;-59
2023/08/25 02:07:17;;;;;;;;;;;;;;;24.33;58.03;100517.25;4149599;28;19926;-59
2023/08/25 02:09:18;;;;;;;;;;;;;;;24.34;57.95;100510.88;4149338;28;19926;-59
2023/08/25 02:11:20;;;;;;;;;;;;;;;24.33;57.92;100503.81;4149069;28;20059;-59
2023/08/25 02:13:21;;;;;;;;;;;;;;;24.33;58.02;100504.66;4148018;28;19976;-59
2023/08/25 02:15:23;;;;;;;;;;;;;;;24.32;58.15;100500.28;4149227;28;19926;-58
2023/08/25 02:17:24;;;;;;;;;;;;;;;24.33;58.09;100504.66;4149488;28;19926;-59
2023/08/25 02:19:26;;;;;;;;;;;;;;;24.33;57.94;100498.44;4149354;28;19925;-58
2023/08/25 02:21:27;;;;;;;;;;;;;;;24.33;57.96;100501.13;4148981;28;19961;-59
2023/08/25 02:23:29;;;;;;;;;;;;;;;24.32;58.25;100496.75;4148217;28;20012;-58
2023/08/25 02:25:30;;;;;;;;;;;;;;;24.33;58.05;100493.06;4149249;28;19941;-58
2023/08/25 02:27:32;;;;;;;;;;;;;;;24.32;57.85;100483.31;4149305;28;19925;-59
2023/08/25 02:29:34;;;;;;;;;;;;;;;24.32;58.05;100486.00;4149347;28;19968;-58
2023/08/25 02:31:35;;;;;;;;;;;;;;;24.31;57.99;100482.44;4149079;28;20339;-58
2023/08/25 02:33:37;;;;;;;;;;;;;;;24.31;57.93;100479.75;4147855;28;20394;-59
2023/08/25 02:35:38;;;;;;;;;;;;;;;24.31;58.12;100460.94;4148850;28;19965;-59
2023/08/25 02:37:55;;;;;;;;;;;;;;;24.30;57.91;100448.50;4148916;28;20299;-59
2023/08/25 02:39:57;;;;;;;;;;;;;;;24.30;58.09;100445.81;4148685;28;19972;-59
2023/08/25 02:41:58;;;;;;;;;;;;;;;24.30;58.25;100445.81;4149137;28;19933;-59
2023/08/25 02:44:00;;;;;;;;;;;;;;;24.29;57.89;100428.03;4148036;28;20303;-58
2023/08/25 02:46:01;;;;;;;;;;;;;;;24.29;58.18;100428.03;4147752;28;19925;-58
2023/08/25 02:48:04;;;;;;;;;;;;;;;24.29;57.93;100432.53;4148900;28;19935;-59
2023/08/25 02:50:05;;;;;;;;;;;;;;;24.29;57.92;100433.41;4148777;28;19930;-59
2023/08/25 02:52:07;;;;;;;;;;;;;;;24.30;58.06;100434.22;4148875;28;19929;-59
2023/08/25 02:54:09;;;;;;;;;;;;;;;24.29;58.36;100433.41;4147109;28;19926;-59
2023/08/25 02:56:10;;;;;;;;;;;;;;;24.29;58.04;100437.91;4148589;28;20033;-59
2023/08/25 02:58:12;;;;;;;;;;;;;;;24.29;58.31;100437.91;4148790;28;20004;-59
2023/08/25 03:00:14;;;;;;;;;;;;;;;24.29;58.44;100438.78;4148656;28;20016;-59
2023/08/25 03:02:16;;;;;;;;;;;;;;;24.28;58.05;100437.09;4148658;28;19944;-58
2023/08/25 03:04:17;;;;;;;;;;;;;;;24.28;58.24;100429.03;4147927;28;20308;-58
2023/08/25 03:06:19;;;;;;;;;;;;;;;24.29;58.26;100435.22;4148636;28;19926;-58
2023/08/25 03:08:22;;;;;;;;;;;;;;;24.27;58.19;100435.38;4147989;28;19948;-58
2023/08/25 03:10:24;;;;;;;;;;;;;;;24.28;58.32;100444.28;4148599;28;19969;-58
2023/08/25 03:12:28;;;;;;;;;;;;;;;24.28;58.36;100441.59;4147007;28;19957;-60
2023/08/25 03:14:30;;;;;;;;;;;;;;;24.28;58.27;100458.56;4146580;28;19953;-58
2023/08/25 03:16:31;;;;;;;;;;;;;;;24.28;58.49;100468.47;4148613;28;20346;-59
2023/08/25 03:18:33;;;;;;;;;;;;;;;24.28;58.46;100474.72;4148423;28;19925;-58
2023/08/25 03:20:35;;;;;;;;;;;;;;;24.28;58.13;100481.91;4148474;28;19996;-58
2023/08/25 03:22:37;;;;;;;;;;;;;;;24.28;58.21;100498.03;4147313;28;19972;-59
2023/08/25 03:24:38;;;;;;;;;;;;;;;24.28;58.09;100495.34;4148119;28;20395;-59
2023/08/25 03:26:40;;;;;;;;;;;;;;;24.27;58.34;100499.88;4148289;28;20012;-58
2023/08/25 03:28:41;;;;;;;;;;;;;;;24.27;58.37;100512.50;4148363;28;20016;-59
2023/08/25 03:30:43;;;;;;;;;;;;;;;24.26;58.19;100522.38;4148424;28;19937;-59
2023/08/25 03:32:44;;;;;;;;;;;;;;;24.26;58.33;100522.38;4147481;28;20318;-59
2023/08/25 03:34:46;;;;;;;;;;;;;;;24.26;58.44;100521.53;4147949;28;19964;-59
2023/08/25 03:36:47;;;;;;;;;;;;;;;24.26;58.28;100526.91;4147790;28;19936;-59
2023/08/25 03:38:50;;;;;;;;;;;;;;;24.26;58.03;100530.44;4148215;28;19929;-59
2023/08/25 03:40:56;;;;;;;;;;;;;;;24.25;58.07;100526.06;4148007;28;19937;-58
2023/08/25 03:42:58;;;;;;;;;;;;;;;24.25;58.40;100509.94;4147245;28;20012;-59
2023/08/25 03:44:59;;;;;;;;;;;;;;;24.24;58.51;100495.66;4147869;28;19925;-59
2023/08/25 03:47:01;;;;;;;;;;;;;;;24.26;58.52;100521.53;4147787;28;19944;-58
2023/08/25 03:49:03;;;;;;;;;;;;;;;24.24;58.49;100511.78;4148136;28;19930;-59
2023/08/25 03:51:04;;;;;;;;;;;;;;;24.24;58.33;100506.41;4147782;28;19960;-58
2023/08/25 03:53:06;;;;;;;;;;;;;;;24.25;58.29;100512.63;4146854;28;19945;-59
2023/08/25 03:55:08;;;;;;;;;;;;;;;24.24;58.26;100516.28;4146421;28;19929;-58
2023/08/25 03:57:10;;;;;;;;;;;;;;;24.24;58.43;100509.09;4147913;28;19926;-58
2023/08/25 03:59:11;;;;;;;;;;;;;;;24.23;58.48;100510.09;4147759;28;20024;-58
2023/08/25 04:01:13;;;;;;;;;;;;;;;24.24;58.49;100502.84;4147942;28;19929;-57
2023/08/25 04:03:14;;;;;;;;;;;;;;;24.23;58.30;100498.50;4146637;28;19932;-58
2023/08/25 04:05:16;;;;;;;;;;;;;;;24.23;58.49;100506.56;4147766;28;19926;-58
2023/08/25 04:07:18;;;;;;;;;;;;;;;24.23;58.32;100509.25;4147328;28;20441;-58
2023/08/25 04:09:19;;;;;;;;;;;;;;;24.23;58.48;100495.81;4147255;28;19955;-58
2023/08/25 04:11:21;;;;;;;;;;;;;;;24.23;58.50;100490.44;4147522;28;19936;-58
2023/08/25 04:13:22;;;;;;;;;;;;;;;24.22;58.69;100486.88;4146427;28;19925;-58
2023/08/25 04:15:24;;;;;;;;;;;;;;;24.22;58.57;100486.06;4147658;28;19963;-58
2023/08/25 04:17:25;;;;;;;;;;;;;;;24.23;58.39;100488.59;4147875;28;19964;-58
2023/08/25 04:19:27;;;;;;;;;;;;;;;24.22;58.41;100489.56;4147666;28;20389;-57
2023/08/25 04:21:29;;;;;;;;;;;;;;;24.22;58.38;100486.06;4147504;28;19929;-58
2023/08/25 04:23:30;;;;;;;;;;;;;;;24.21;58.50;100482.50;4146778;28;20283;-58
2023/08/25 04:25:32;;;;;;;;;;;;;;;24.22;58.69;100478.00;4147637;28;19947;-58
2023/08/25 04:27:33;;;;;;;;;;;;;;;24.22;58.47;100478.00;4147318;28;19930;-58
2023/08/25 04:29:35;;;;;;;;;;;;;;;24.22;58.90;100469.94;4147465;28;20342;-58
2023/08/25 04:31:37;;;;;;;;;;;;;;;24.21;58.46;100466.38;4147189;28;19987;-58
2023/08/25 04:33:38;;;;;;;;;;;;;;;24.22;58.73;100472.63;4146319;28;20012;-58
2023/08/25 04:35:43;;;;;;;;;;;;;;;24.21;58.72;100468.25;4147304;28;20413;-58
2023/08/25 04:37:47;;;;;;;;;;;;;;;24.21;58.47;100469.06;4147451;28;19932;-58
2023/08/25 04:39:48;;;;;;;;;;;;;;;24.20;58.61;100459.31;4147319;28;19925;-59
2023/08/25 04:41:50;;;;;;;;;;;;;;;24.20;58.67;100456.63;4147517;28;19936;-58
2023/08/25 04:43:52;;;;;;;;;;;;;;;24.21;58.56;100460.19;4144766;28;19960;-58
2023/08/25 04:45:53;;;;;;;;;;;;;;;24.20;58.68;100462.00;4147425;28;20004;-58
2023/08/25 04:47:55;;;;;;;;;;;;;;;24.20;59.06;100466.53;4147408;28;19971;-58
2023/08/25 04:49:57;;;;;;;;;;;;;;;24.21;58.57;100468.25;4147122;28;20350;-57
2023/08/25 04:52:00;;;;;;;;;;;;;;;24.20;58.62;100462.00;4147341;28;20016;-57
2023/08/25 04:54:02;;;;;;;;;;;;;;;24.20;58.76;100462.00;4146305;28;20013;-58
2023/08/25 04:56:04;;;;;;;;;;;;;;;24.20;59.07;100463.84;4147236;28;19991;-58
2023/08/25 04:58:06;;;;;;;;;;;;;;;24.20;58.80;100466.53;4147287;28;19972;-58
2023/08/25 05:00:08;;;;;;;;;;;;;;;24.19;58.92;100457.66;4147399;28;19925;-58
2023/08/25 05:02:10;;;;;;;;;;;;;;;24.20;58.99;100461.16;4147519;28;19933;-58
2023/08/25 05:04:11;;;;;;;;;;;;;;;24.20;59.00;100458.47;4145951;28;19933;-58
2023/08/25 05:06:13;;;;;;;;;;;;;;;24.19;58.89;100457.66;4147193;28;20362;-58
2023/08/25 05:08:15;;;;;;;;;;;;;;;24.19;58.96;100449.59;4147184;28;20409;-59
2023/08/25 05:10:16;;;;;;;;;;;;;;;24.19;58.95;100452.28;4147245;28;19948;-58
2023/08/25 05:12:18;;;;;;;;;;;;;;;24.19;59.08;100457.66;4146884;28;19932;-58
2023/08/25 05:14:19;;;;;;;;;;;;;;;24.18;58.94;100455.09;4145912;28;20385;-58
2023/08/25 05:16:21;;;;;;;;;;;;;;;24.18;59.14;100449.72;4147120;28;20317;-58
2023/08/25 05:18:24;;;;;;;;;;;;;;;24.18;59.11;100450.56;4146796;28;19940;-58
2023/08/25 05:20:26;;;;;;;;;;;;;;;24.17;58.95;100446.19;4149107;28;19930;-58
2023/08/25 05:22:28;;;;;;;;;;;;;;;24.18;59.25;100449.72;4150211;28;20379;-56
2023/08/25 05:24:30;;;;;;;;;;;;;;;24.18;59.16;100455.09;4149240;28;19926;-59
2023/08/25 05:26:32;;;;;;;;;;;;;;;24.18;59.27;100452.41;4150296;28;19926;-58
2023/08/25 05:28:34;;;;;;;;;;;;;;;24.17;59.15;100461.44;4150151;28;20020;-59
2023/08/25 05:30:35;;;;;;;;;;;;;;;24.18;59.34;100464.00;4150115;28;20037;-58
2023/08/25 05:32:37;;;;;;;;;;;;;;;24.18;59.06;100469.38;4149706;28;19925;-58
2023/08/25 05:34:38;;;;;;;;;;;;;;;24.18;59.02;100466.69;4149154;28;19932;-58
2023/08/25 05:36:40;;;;;;;;;;;;;;;24.17;59.34;100466.81;4149788;28;19925;-58
2023/08/25 05:38:41;;;;;;;;;;;;;;;24.18;59.64;100468.53;4149920;28;19929;-57
2023/08/25 05:40:43;;;;;;;;;;;;;;;24.16;59.16;100471.38;4150022;28;20318;-58
2023/08/25 05:42:44;;;;;;;;;;;;;;;24.16;59.41;100471.38;4150021;28;20012;-57
2023/08/25 05:44:46;;;;;;;;;;;;;;;24.17;59.42;100477.56;4149093;28;19925;-57
2023/08/25 05:46:47;;;;;;;;;;;;;;;24.16;59.45;100487.50;4149831;28;19929;-57
2023/08/25 05:48:49;;;;;;;;;;;;;;;24.17;59.36;100494.56;4149438;28;19925;-58
2023/08/25 05:50:50;;;;;;;;;;;;;;;24.17;59.17;100505.31;4149681;28;20003;-58
2023/08/25 05:52:53;;;;;;;;;;;;;;;24.17;59.15;100510.69;4149715;28;19936;-58
2023/08/25 05:54:54;;;;;;;;;;;;;;;24.16;59.23;100506.28;4148722;28;19930;-58
2023/08/25 05:56:56;;;;;;;;;;;;;;;24.16;59.24;100510.84;4149700;28;20020;-57
2023/08/25 05:59:00;;;;;;;;;;;;;;;24.16;59.25;100511.66;4149698;28;19925;-58
2023/08/25 06:01:02;;;;;;;;;;;;;;;24.15;59.23;100511.81;4149682;28;19936;-58
2023/08/25 06:03:04;;;;;;;;;;;;;;;24.15;59.47;100504.59;4147252;28;19925;-59
2023/08/25 06:05:06;;;;;;;;;;;;;;;24.15;59.37;100501.09;4149328;28;19988;-58
2023/08/25 06:07:07;;;;;;;;;;;;;;;24.15;59.43;100498.41;4149588;28;20301;-58
2023/08/25 06:09:09;;;;;;;;;;;;;;;24.14;59.32;100485.94;4149477;28;19932;-58
2023/08/25 06:11:10;;;;;;;;;;;;;;;24.14;59.31;100486.78;4149598;28;19926;-58
2023/08/25 06:13:12;;;;;;;;;;;;;;;24.13;59.37;100474.34;4148332;28;19925;-58
2023/08/25 06:15:14;;;;;;;;;;;;;;;24.13;59.50;100471.66;4149200;28;19931;-58
2023/08/25 06:17:15;;;;;;;;;;;;;;;24.14;59.69;100473.34;4148837;28;19926;-58
2023/08/25 06:19:17;;;;;;;;;;;;;;;24.13;59.50;100476.19;4149470;28;19925;-58
2023/08/25 06:21:18;;;;;;;;;;;;;;;24.13;59.71;100476.19;4149337;28;19975;-58
2023/08/25 06:23:20;;;;;;;;;;;;;;;24.13;59.39;100484.25;4148271;28;19961;-58
2023/08/25 06:25:22;;;;;;;;;;;;;;;24.13;59.43;100486.94;4149114;28;19931;-58
2023/08/25 06:27:24;;;;;;;;;;;;;;;24.13;59.32;100490.47;4149350;28;20375;-58
2023/08/25 06:29:25;;;;;;;;;;;;;;;24.13;59.57;100497.69;4149294;28;20368;-58
2023/08/25 06:31:30;;;;;;;;;;;;;;;24.12;59.50;100494.16;4148501;28;19996;-58
2023/08/25 06:33:31;;;;;;;;;;;;;;;24.13;59.28;100490.47;4148281;28;19951;-58
2023/08/25 06:35:33;;;;;;;;;;;;;;;24.13;59.68;100486.94;4149060;28;20016;-58
2023/08/25 06:37:34;;;;;;;;;;;;;;;24.12;59.64;100499.53;4148862;28;20028;-57
2023/08/25 06:39:36;;;;;;;;;;;;;;;24.12;59.46;100498.69;4149096;28;19929;-57
2023/08/25 06:41:37;;;;;;;;;;;;;;;24.12;59.73;100507.59;4149087;28;19925;-58
2023/08/25 06:43:39;;;;;;;;;;;;;;;24.12;59.33;100512.97;4147985;28;19926;-57
2023/08/25 06:45:40;;;;;;;;;;;;;;;24.13;59.48;100505.75;4148387;28;19963;-58
2023/08/25 06:47:44;;;;;;;;;;;;;;;24.13;59.19;100508.44;4149085;28;19925;-58
2023/08/25 06:49:46;;;;;;;;;;;;;;;24.12;59.67;100504.06;4148930;28;19929;-58
2023/08/25 06:51:48;;;;;;;;;;;;;;;24.12;59.56;100496.00;4148662;28;19932;-58
2023/08/25 06:53:50;;;;;;;;;;;;;;;24.12;59.50;100496.00;4147943;28;19927;-58
2023/08/25 06:55:51;;;;;;;;;;;;;;;24.12;59.61;100486.09;4148545;28;20355;-58
2023/08/25 06:57:53;;;;;;;;;;;;;;;24.11;59.63;100484.41;4148860;28;19925;-58
2023/08/25 06:59:55;;;;;;;;;;;;;;;24.10;59.71;100485.41;4148497;28;20357;-57
2023/08/25 07:01:56;;;;;;;;;;;;;;;24.11;59.46;100486.22;4148623;28;20458;-58
2023/08/25 07:03:58;;;;;;;;;;;;;;;24.11;59.49;100491.59;4147654;28;20019;-57
2023/08/25 07:05:59;;;;;;;;;;;;;;;24.11;59.63;100489.78;4148533;28;19926;-57
2023/08/25 07:08:01;;;;;;;;;;;;;;;24.12;59.41;100496.00;4148422;28;20004;-57
2023/08/25 07:10:04;;;;;;;;;;;;;;;24.11;59.33;100496.97;4148590;28;19925;-58
2023/08/25 07:12:06;;;;;;;;;;;;;;;24.11;59.56;100502.34;4148300;28;19930;-58
2023/08/25 07:14:08;;;;;;;;;;;;;;;24.11;59.81;100505.91;4147054;28;19965;-57
2023/08/25 07:16:09;;;;;;;;;;;;;;;24.10;59.55;100496.16;4148399;28;19925;-57
2023/08/25 07:18:11;;;;;;;;;;;;;;;24.09;59.81;100497.97;4148404;28;19929;-57
2023/08/25 07:20:12;;;;;;;;;;;;;;;24.10;59.62;100498.84;4148435;28;19926;-57
2023/08/25 07:22:14;;;;;;;;;;;;;;;24.11;59.60;100491.59;4148320;28;19925;-57
2023/08/25 07:24:16;;;;;;;;;;;;;;;24.10;59.26;100488.09;4147436;28;19929;-57
2023/08/25 07:26:17;;;;;;;;;;;;;;;24.09;59.49;100489.06;4148448;28;19932;-58
2023/08/25 07:28:19;;;;;;;;;;;;;;;24.09;59.35;100489.06;4148158;28;19956;-57
2023/08/25 07:30:21;;;;;;;;;;;;;;;24.08;59.67;100490.06;4147838;28;19990;-57
2023/08/25 07:32:22;;;;;;;;;;;;;;;24.07;59.48;100499.97;4148162;28;19926;-57
2023/08/25 07:34:28;;;;;;;;;;;;;;;24.09;59.31;100497.97;4146863;28;19929;-58
2023/08/25 07:36:30;;;;;;;;;;;;;;;24.09;59.37;100511.41;4148041;28;20012;-58
2023/08/25 07:38:31;;;;;;;;;;;;;;;24.09;59.72;100508.72;4147864;28;19932;-57
2023/08/25 07:40:33;;;;;;;;;;;;;;;24.08;59.63;100517.81;4148038;28;19926;-58
2023/08/25 07:42:35;;;;;;;;;;;;;;;24.09;59.50;100524.84;4147755;28;19940;-56
2023/08/25 07:44:37;;;;;;;;;;;;;;;24.07;59.39;100521.47;4146067;28;19936;-58
2023/08/25 07:46:39;;;;;;;;;;;;;;;24.07;59.95;100518.78;4148130;28;19979;-58
2023/08/25 07:48:41;;;;;;;;;;;;;;;24.07;60.06;100516.09;4147938;28;19926;-58
2023/08/25 07:50:42;;;;;;;;;;;;;;;24.06;59.92;100519.78;4147883;28;20008;-58
2023/08/25 07:52:43;;;;;;;;;;;;;;;24.05;59.85;100526.13;4148112;28;19925;-58
2023/08/25 07:54:45;;;;;;;;;;;;;;;24.04;60.30;100535.19;4146772;28;19941;-58
2023/08/25 07:56:47;;;;;;;;;;;;;;;24.05;60.01;100541.44;4147859;28;19930;-58
2023/08/25 07:58:48;;;;;;;;;;;;;;;24.03;59.87;100544.22;4147540;28;20337;-58
2023/08/25 08:00:50;;;;;;;;;;;;;;;24.03;59.79;100544.22;4147730;28;20424;-58
2023/08/25 08:02:51;;;;;;;;;;;;;;;24.04;60.00;100553.16;4147731;28;20008;-57
2023/08/25 08:04:53;;;;;;;;;;;;;;;24.03;60.12;100552.28;4146692;28;20355;-58
2023/08/25 08:06:55;;;;;;;;;;;;;;;24.03;60.05;100549.59;4147871;28;19971;-58
2023/08/25 08:08:56;;;;;;;;;;;;;;;24.03;60.19;100557.66;4147737;28;19929;-58
2023/08/25 08:10:58;;;;;;;;;;;;;;;24.02;60.35;100558.69;4147771;28;19925;-57
2023/08/25 08:13:00;;;;;;;;;;;;;;;24.02;60.25;100558.69;4147213;28;19991;-58
2023/08/25 08:15:04;;;;;;;;;;;;;;;24.03;59.86;100564.91;4145113;28;19932;-58
2023/08/25 08:17:06;;;;;;;;;;;;;;;24.01;60.22;100559.69;4147461;28;19925;-58
2023/08/25 08:19:07;;;;;;;;;;;;;;;24.01;60.34;100573.09;4147801;28;20354;-58
2023/08/25 08:21:09;;;;;;;;;;;;;;;24.01;60.40;100566.88;4147650;28;20016;-58
2023/08/25 08:23:11;;;;;;;;;;;;;;;24.00;60.27;100563.34;4147552;28;19980;-58
2023/08/25 08:25:14;;;;;;;;;;;;;;;24.01;60.33;100569.56;4146869;28;19925;-56
2023/08/25 08:27:16;;;;;;;;;;;;;;;24.00;60.32;100566.03;4146297;28;19971;-55
2023/08/25 08:29:18;;;;;;;;;;;;;;;24.01;59.99;100572.25;4147422;28;19940;-58
2023/08/25 08:31:19;;;;;;;;;;;;;;;24.01;60.12;100583.00;4147317;28;19929;-56
2023/08/25 08:33:21;;;;;;;;;;;;;;;24.01;60.01;100586.53;4147419;28;20310;-56
2023/08/25 08:35:22;;;;;;;;;;;;;;;24.01;60.41;100588.34;4146577;28;20307;-58
2023/08/25 08:37:24;;;;;;;;;;;;;;;24.01;60.25;100593.72;4147584;28;19926;-58
2023/08/25 08:39:27;;;;;;;;;;;;;;;24.01;60.15;100599.97;4147399;28;20020;-58
2023/08/25 08:41:29;;;;;;;;;;;;;;;24.01;59.90;100599.97;4147141;28;20009;-58
2023/08/25 08:43:35;;;;;;;;;;;;;;;24.01;59.79;100605.34;4147564;28;20004;-59
2023/08/25 08:45:38;;;;;;;;;;;;;;;24.01;60.13;100615.22;4147089;28;19929;-58
2023/08/25 08:47:41;;;;;;;;;;;;;;;24.00;60.11;100614.38;4147429;28;20045;-58
2023/08/25 08:49:44;;;;;;;;;;;;;;;24.01;60.03;100617.91;4147255;28;20024;-58
2023/08/25 08:51:46;;;;;;;;;;;;;;;24.00;60.03;100622.44;4147134;28;19947;-58
2023/08/25 08:53:49;;;;;;;;;;;;;;;23.99;60.26;100617.22;4145261;28;19929;-57
2023/08/25 08:55:51;;;;;;;;;;;;;;;23.98;59.97;100624.44;4149825;28;19932;-57
2023/08/25 08:57:53;;;;;;;;;;;;;;;23.97;60.09;100629.94;4150518;28;19981;-58
2023/08/25 08:59:58;;;;;;;;;;;;;;;23.97;60.37;100628.09;4150822;28;19972;-58
2023/08/25 09:02:00;;;;;;;;;;;;;;;23.97;59.99;100619.19;4149612;28;19926;-57
2023/08/25 09:04:02;;;;;;;;;;;;;;;23.97;60.30;100627.25;4149631;28;19987;-59
2023/08/25 09:06:04;;;;;;;;;;;;;;;23.96;60.11;100622.88;4150536;28;19925;-57
2023/08/25 09:08:07;;;;;;;;;;;;;;;23.96;60.30;100631.78;4150320;28;19925;-58
2023/08/25 09:10:10;;;;;;;;;;;;;;;23.97;60.19;100625.41;4150109;28;20000;-58
2023/08/25 09:12:13;;;;;;;;;;;;;;;23.98;60.21;100626.28;4150337;28;19937;-58
2023/08/25 09:14:28;;;;;;;;;;;;;;;23.98;60.03;100628.97;4149548;28;19925;-58
2023/08/25 09:16:31;;;;;;;;;;;;;;;23.98;59.89;100624.44;4150061;28;19976;-58
2023/08/25 09:18:34;;;;;;;;;;;;;;;23.99;59.90;100634.19;4150325;28;19925;-59
2023/08/25 09:20:38;;;;;;;;;;;;;;;23.99;59.98;100633.34;4150316;28;19933;-58
2023/08/25 09:22:41;;;;;;;;;;;;;;;23.99;59.73;100634.19;4150297;28;19956;-58
2023/08/25 09:24:43;;;;;;;;;;;;;;;23.98;59.79;100642.41;4148763;28;19980;-58
2023/08/25 09:26:46;;;;;;;;;;;;;;;23.99;59.72;100644.09;4150321;28;19926;-59
2023/08/25 09:28:54;;;;;;;;;;;;;;;23.95;60.01;100651.59;4150012;28;19937;-59
2023/08/25 09:30:55;;;;;;;;;;;;;;;23.98;60.16;100656.66;4150032;28;19930;-58
2023/08/25 09:33:01;;;;;;;;;;;;;;;23.97;59.87;100660.34;4149934;28;19926;-59
2023/08/25 09:35:13;;;;;;;;;;;;;;;23.98;60.02;100663.88;4148861;28;19925;-59
2023/08/25 09:37:14;;;;;;;;;;;;;;;23.98;59.83;100661.19;4150328;28;19925;-58
2023/08/25 09:39:16;;;;;;;;;;;;;;;23.97;59.99;100660.34;4150062;28;19957;-59
2023/08/25 09:41:25;;;;;;;;;;;;;;;23.96;59.80;100664.00;4149913;28;20051;-59
2023/08/25 09:43:30;;;;;;;;;;;;;;;23.98;59.78;100663.88;4150060;28;20280;-58
2023/08/25 09:45:32;;;;;;;;;;;;;;;23.97;59.87;100664.88;4149074;28;20012;-59
2023/08/25 09:47:35;;;;;;;;;;;;;;;23.96;59.54;100671.22;4149953;28;19932;-58
2023/08/25 09:49:38;;;;;;;;;;;;;;;23.96;59.54;100677.44;4150031;28;19925;-58
2023/08/25 09:51:42;;;;;;;;;;;;;;;23.90;59.97;100657.34;4149682;28;19972;-59
2023/08/25 09:53:45;;;;;;;;;;;;;;;23.97;59.72;100672.94;4149342;28;19925;-59
2023/08/25 09:55:49;;;;;;;;;;;;;;;23.95;59.57;100680.28;4149081;28;19925;-58
2023/08/25 09:57:51;;;;;;;;;;;;;;;23.96;59.59;100677.44;4149650;28;19968;-58
2023/08/25 09:59:54;;;;;;;;;;;;;;;23.96;59.80;100672.06;4149535;28;19960;-58
2023/08/25 10:01:57;;;;;;;;;;;;;;;23.96;59.79;100673.91;4149638;28;19932;-60
2023/08/25 10:03:59;;;;;;;;;;;;;;;23.96;59.90;100669.38;4148942;28;19925;-58
2023/08/25 10:06:01;;;;;;;;;;;;;;;23.97;59.74;100672.94;4148657;28;20429;-57
2023/08/25 10:08:02;;;;;;;;;;;;;;;23.96;59.56;100673.91;4149159;28;19932;-57
2023/08/25 10:10:04;;;;;;;;;;;;;;;23.97;59.67;100664.88;4149387;28;20017;-56
2023/08/25 10:12:08;;;;;;;;;;;;;;;23.97;59.45;100671.06;4149259;28;19961;-59
2023/08/25 10:14:11;;;;;;;;;;;;;;;23.97;59.35;100667.56;4148788;28;20252;-59
2023/08/25 10:16:13;;;;;;;;;;;;;;;23.98;59.58;100666.56;4149258;28;19925;-58
2023/08/25 10:18:15;;;;;;;;;;;;;;;23.97;59.58;100664.88;4149322;28;20280;-58
2023/08/25 10:20:22;;;;;;;;;;;;;;;23.97;59.59;100659.50;4149386;28;20012;-58
2023/08/25 10:22:24;;;;;;;;;;;;;;;23.96;59.36;100660.47;4149399;28;19925;-58
2023/08/25 10:24:28;;;;;;;;;;;;;;;23.97;59.52;100668.38;4147886;28;19926;-58
2023/08/25 10:26:30;;;;;;;;;;;;;;;23.96;59.19;100668.53;4149274;28;19937;-58
2023/08/25 10:28:34;;;;;;;;;;;;;;;23.96;59.14;100669.38;4147912;28;20008;-58